createdAt,value
2018-01-28T00:00:22.501Z,102064.88
2018-01-28T00:02:49.988Z,102065.37
2018-01-28T00:05:17.733Z,102066.83
2018-01-28T00:07:45.197Z,102060.45
2018-01-28T00:10:12.645Z,102052.59
2018-01-28T00:12:45.753Z,102058.42
2018-01-28T00:15:13.307Z,102050.16
2018-01-28T00:17:40.784Z,102055.52
2018-01-28T00:20:08.253Z,102055.45
2018-01-28T00:22:35.705Z,102057.48
2018-01-28T00:25:03.477Z,102050.20
2018-01-28T00:27:30.916Z,102055.11
2018-01-28T00:29:58.380Z,102056.36
2018-01-28T00:32:25.868Z,102052.90
2018-01-28T00:34:53.356Z,102051.44
2018-01-28T00:37:20.829Z,102048.39
2018-01-28T00:39:48.276Z,102050.10
2018-01-28T00:42:15.725Z,102043.05
2018-01-28T00:44:43.201Z,102046.82
2018-01-28T00:47:10.645Z,102041.88
2018-01-28T00:49:38.505Z,102033.84
2018-01-28T00:52:06.409Z,102025.02
2018-01-28T00:54:33.865Z,102019.60
2018-01-28T00:57:01.330Z,102015.38
2018-01-28T00:59:28.777Z,102026.45
2018-01-28T01:01:56.521Z,102013.27
2018-01-28T01:04:23.964Z,101998.94
2018-01-28T01:06:51.413Z,101990.75
2018-01-28T01:09:19.085Z,101980.17
2018-01-28T01:11:46.537Z,101985.70
2018-01-28T01:14:14.215Z,101984.20
2018-01-28T01:16:41.649Z,101983.28
2018-01-28T01:19:09.089Z,101994.69
2018-01-28T01:21:36.557Z,102000.63
2018-01-28T01:24:03.997Z,102008.25
2018-01-28T01:26:31.597Z,102007.41
2018-01-28T01:28:59.050Z,102001.78
2018-01-28T01:31:26.492Z,102010.55
2018-01-28T01:33:53.957Z,102012.09
2018-01-28T01:36:21.395Z,102006.37
2018-01-28T01:38:49.084Z,102002.77
2018-01-28T01:41:16.521Z,102003.23
2018-01-28T01:43:43.956Z,102011.03
2018-01-28T01:46:11.416Z,102000.63
2018-01-28T01:48:38.860Z,101995.91
2018-01-28T01:51:06.334Z,101998.44
2018-01-28T01:53:33.822Z,101992.33
2018-01-28T01:56:01.256Z,101992.06
2018-01-28T01:58:28.692Z,101984.55
2018-01-28T02:00:56.142Z,101982.95
2018-01-28T02:03:23.598Z,101988.71
2018-01-28T02:05:51.064Z,102002.39
2018-01-28T02:08:18.528Z,101994.89
2018-01-28T02:10:45.967Z,102000.80
2018-01-28T02:13:13.401Z,102000.22
2018-01-28T02:15:40.853Z,101993.33
2018-01-28T02:18:08.410Z,101989.68
2018-01-28T02:20:36.692Z,101977.33
2018-01-28T02:23:04.154Z,101972.73
2018-01-28T02:25:31.585Z,101980.13
2018-01-28T02:27:59.045Z,101985.78
2018-01-28T02:30:26.828Z,101968.44
2018-01-28T02:32:54.301Z,101967.00
2018-01-28T02:35:21.740Z,101977.86
2018-01-28T02:37:49.184Z,101975.89
2018-01-28T02:40:16.680Z,101982.54
2018-01-28T02:42:44.337Z,101971.17
2018-01-28T02:45:11.946Z,101967.31
2018-01-28T02:47:39.388Z,101960.95
2018-01-28T02:50:06.833Z,101959.45
2018-01-28T02:52:34.292Z,101957.62
2018-01-28T02:55:02.062Z,101942.61
2018-01-28T02:57:29.784Z,101940.34
2018-01-28T02:59:57.431Z,101951.00
2018-01-28T03:02:24.865Z,101941.61
2018-01-28T03:04:52.329Z,101945.36
2018-01-28T03:07:20.156Z,101954.56
2018-01-28T03:09:47.736Z,101965.53
2018-01-28T03:12:15.184Z,101962.54
2018-01-28T03:14:42.648Z,101960.80
2018-01-28T03:17:10.159Z,101971.81
2018-01-28T03:19:37.673Z,101974.27
2018-01-28T03:22:05.137Z,101971.31
2018-01-28T03:24:32.579Z,101975.13
2018-01-28T03:27:00.038Z,101972.75
2018-01-28T03:29:27.493Z,101972.17
2018-01-28T03:31:54.980Z,101979.02
2018-01-28T03:34:22.442Z,101985.16
2018-01-28T03:36:49.880Z,101981.93
2018-01-28T03:39:17.325Z,101983.89
2018-01-28T03:41:44.784Z,101991.54
2018-01-28T03:44:12.956Z,101984.81
2018-01-28T03:46:40.913Z,101976.06
2018-01-28T03:49:08.353Z,101978.33
2018-01-28T03:51:35.797Z,101966.50
2018-01-28T03:54:03.256Z,101967.27
2018-01-28T03:56:30.692Z,101973.45
2018-01-28T03:58:58.153Z,101976.84
2018-01-28T04:01:25.589Z,101972.20
2018-01-28T04:03:53.029Z,101959.95
2018-01-28T04:06:20.485Z,101959.59
2018-01-28T04:08:47.949Z,101944.74
2018-01-28T04:11:15.682Z,101948.08
2018-01-28T04:13:43.777Z,101945.36
2018-01-28T04:16:11.214Z,101961.53
2018-01-28T04:18:38.677Z,101966.45
2018-01-28T04:21:06.133Z,101964.95
2018-01-28T04:23:33.584Z,101977.27
2018-01-28T04:26:01.020Z,101983.73
2018-01-28T04:28:28.452Z,101986.45
2018-01-28T04:30:55.909Z,101981.18
2018-01-28T04:33:23.344Z,101984.39
2018-01-28T04:35:51.177Z,101989.90
2018-01-28T04:38:18.617Z,101988.48
2018-01-28T04:40:46.054Z,101989.74
2018-01-28T04:43:13.529Z,101991.42
2018-01-28T04:45:40.977Z,101991.62
2018-01-28T04:48:08.716Z,101994.62
2018-01-28T04:50:36.174Z,101999.38
2018-01-28T04:53:03.616Z,101998.17
2018-01-28T04:55:31.077Z,102008.30
2018-01-28T04:57:58.537Z,102001.76
2018-01-28T05:00:27.326Z,101997.73
2018-01-28T05:02:54.782Z,102007.91
2018-01-28T05:05:22.218Z,102008.69
2018-01-28T05:07:49.680Z,102006.27
2018-01-28T05:10:17.117Z,102016.52
2018-01-28T05:12:46.139Z,102022.55
2018-01-28T05:15:14.064Z,102020.23
2018-01-28T05:17:41.505Z,102025.54
2018-01-28T05:20:08.961Z,102027.02
2018-01-28T05:22:36.404Z,102023.11
2018-01-28T05:25:04.221Z,102022.80
2018-01-28T05:27:31.658Z,102018.69
2018-01-28T05:29:59.092Z,102018.32
2018-01-28T05:32:26.549Z,102014.34
2018-01-28T05:34:54.021Z,102016.30
2018-01-28T05:37:22.305Z,102017.27
2018-01-28T05:39:49.756Z,102022.86
2018-01-28T05:42:17.193Z,102019.94
2018-01-28T05:44:44.653Z,102019.47
2018-01-28T05:47:12.092Z,102018.62
2018-01-28T05:49:40.155Z,102014.95
2018-01-28T05:52:07.629Z,102022.64
2018-01-28T05:54:35.069Z,102016.24
2018-01-28T05:57:02.537Z,102019.70
2018-01-28T05:59:29.981Z,102014.84
2018-01-28T06:01:57.559Z,102016.69
2018-01-28T06:04:24.997Z,102011.85
2018-01-28T06:06:52.440Z,102017.17
2018-01-28T06:09:19.906Z,102016.41
2018-01-28T06:11:47.354Z,102027.03
2018-01-28T06:14:14.837Z,102025.64
2018-01-28T06:16:42.289Z,102028.70
2018-01-28T06:19:09.741Z,102024.36
2018-01-28T06:21:37.196Z,102025.23
2018-01-28T06:24:04.640Z,102027.56
2018-01-28T06:26:32.445Z,102031.60
2018-01-28T06:28:59.894Z,102034.27
2018-01-28T06:31:27.337Z,102041.38
2018-01-28T06:33:54.840Z,102046.17
2018-01-28T06:36:22.293Z,102045.13
2018-01-28T06:38:50.270Z,102036.11
2018-01-28T06:41:17.722Z,102032.39
2018-01-28T06:43:45.162Z,102027.95
2018-01-28T06:46:12.617Z,102032.49
2018-01-28T06:48:40.272Z,102033.87
2018-01-28T06:51:07.793Z,102034.39
2018-01-28T06:53:35.282Z,102044.30
2018-01-28T06:56:02.728Z,102036.31
2018-01-28T06:58:30.189Z,102035.42
2018-01-28T07:00:58.077Z,102043.42
2018-01-28T07:03:25.729Z,102060.08
2018-01-28T07:05:53.169Z,102067.79
2018-01-28T07:08:20.600Z,102072.78
2018-01-28T07:10:48.064Z,102079.92
2018-01-28T07:13:15.505Z,102070.66
2018-01-28T07:15:42.981Z,102075.33
2018-01-28T07:18:10.428Z,102081.39
2018-01-28T07:20:37.864Z,102088.06
2018-01-28T07:23:05.326Z,102092.84
2018-01-28T07:25:33.404Z,102088.68
2018-01-28T07:28:01.202Z,102085.23
2018-01-28T07:30:28.640Z,102088.18
2018-01-28T07:32:56.093Z,102075.34
2018-01-28T07:35:23.565Z,102077.05
2018-01-28T07:37:51.447Z,102078.95
2018-01-28T07:40:18.924Z,102081.19
2018-01-28T07:42:46.385Z,102081.22
2018-01-28T07:45:13.821Z,102070.51
2018-01-28T07:47:41.281Z,102070.86
2018-01-28T07:50:09.313Z,102070.86
2018-01-28T07:52:36.773Z,102077.90
2018-01-28T07:55:04.224Z,102076.32
2018-01-28T07:57:31.678Z,102074.13
2018-01-28T07:59:59.133Z,102072.27
2018-01-28T08:02:26.580Z,102077.05
2018-01-28T08:04:55.376Z,102077.03
2018-01-28T08:07:22.808Z,102087.83
2018-01-28T08:09:54.876Z,102085.56
2018-01-28T08:12:24.850Z,102095.63
2018-01-28T08:14:54.421Z,102110.58
2018-01-28T08:17:21.881Z,102112.14
2018-01-28T08:19:49.334Z,102116.89
2018-01-28T08:22:16.796Z,102116.00
2018-01-28T08:24:44.236Z,102107.66
2018-01-28T08:30:12.593Z,102110.03
2018-01-28T08:32:40.205Z,102111.31
2018-01-28T08:35:07.665Z,102110.21
2018-01-28T08:37:35.102Z,102113.91
2018-01-28T08:40:02.562Z,102118.16
2018-01-28T08:42:30.001Z,102116.92
2018-01-28T08:44:57.573Z,102120.02
2018-01-28T08:47:25.029Z,102123.18
2018-01-28T08:49:52.469Z,102130.73
2018-01-28T08:52:19.926Z,102136.58
2018-01-28T08:54:47.370Z,102134.87
2018-01-28T08:57:15.847Z,102134.31
2018-01-28T08:59:43.297Z,102145.77
2018-01-28T09:02:10.754Z,102151.59
2018-01-28T09:04:38.209Z,102146.98
2018-01-28T09:07:05.673Z,102153.57
2018-01-28T09:09:33.319Z,102162.30
2018-01-28T09:12:00.766Z,102162.31
2018-01-28T09:14:28.204Z,102160.68
2018-01-28T09:16:55.664Z,102151.87
2018-01-28T09:19:23.105Z,102153.61
2018-01-28T09:21:50.817Z,102162.47
2018-01-28T09:24:18.353Z,102165.02
2018-01-28T09:26:45.792Z,102163.52
2018-01-28T09:29:13.256Z,102165.80
2018-01-28T09:31:40.692Z,102159.29
2018-01-28T09:34:08.392Z,102157.14
2018-01-28T09:36:35.833Z,102166.45
2018-01-28T09:39:03.290Z,102161.83
2018-01-28T09:41:30.749Z,102174.39
2018-01-28T09:43:58.209Z,102178.95
2018-01-28T09:46:25.848Z,102171.12
2018-01-28T09:48:53.593Z,102169.00
2018-01-28T09:51:21.029Z,102177.69
2018-01-28T09:53:48.516Z,102180.25
2018-01-28T09:56:15.953Z,102191.80
2018-01-28T09:58:43.553Z,102188.16
2018-01-28T10:01:11.051Z,102185.70
2018-01-28T10:03:38.633Z,102200.06
2018-01-28T10:06:06.113Z,102208.52
2018-01-28T10:08:33.565Z,102202.41
2018-01-28T10:11:01.041Z,102212.48
2018-01-28T10:13:28.476Z,102220.30
2018-01-28T10:15:55.933Z,102220.28
2018-01-28T10:18:23.389Z,102230.80
2018-01-28T10:26:36.090Z,102219.22
2018-01-28T10:29:03.520Z,102228.03
2018-01-28T10:31:31.193Z,102224.98
2018-01-28T10:33:58.637Z,102227.30
2018-01-28T10:36:26.930Z,102234.86
2018-01-28T10:38:54.397Z,102231.55
2018-01-28T10:41:21.905Z,102236.11
2018-01-28T10:43:49.364Z,102236.53
2018-01-28T10:46:17.236Z,102233.88
2018-01-28T10:48:44.669Z,102236.55
2018-01-28T10:51:12.129Z,102232.28
2018-01-28T10:53:39.598Z,102228.80
2018-01-28T10:56:07.202Z,102229.03
2018-01-28T10:58:34.641Z,102233.22
2018-01-28T11:01:02.093Z,102232.33
2018-01-28T11:03:29.986Z,102231.13
2018-01-28T11:05:57.427Z,102223.70
2018-01-28T11:08:25.201Z,102237.76
2018-01-28T11:10:52.636Z,102234.19
2018-01-28T11:13:20.074Z,102235.50
2018-01-28T11:15:47.534Z,102229.03
2018-01-28T11:18:14.984Z,102235.28
2018-01-28T11:20:42.457Z,102223.21
2018-01-28T11:23:09.892Z,102224.59
2018-01-28T11:25:37.340Z,102230.02
2018-01-28T11:28:04.802Z,102222.94
2018-01-28T11:30:32.237Z,102227.88
2018-01-28T11:32:59.721Z,102230.80
2018-01-28T11:35:27.193Z,102234.41
2018-01-28T11:37:54.629Z,102230.84
2018-01-28T11:40:22.088Z,102227.64
2018-01-28T11:42:49.547Z,102240.63
2018-01-28T11:45:17.021Z,102230.42
2018-01-28T11:47:44.458Z,102229.42
2018-01-28T11:50:11.909Z,102228.55
2018-01-28T11:52:39.373Z,102231.17
2018-01-28T11:55:06.873Z,102224.56
2018-01-28T11:57:34.759Z,102223.67
2018-01-28T12:00:02.384Z,102228.09
2018-01-28T12:02:29.825Z,102224.21
2018-01-28T12:04:57.815Z,102222.06
2018-01-28T12:07:25.256Z,102218.12
2018-01-28T12:09:53.206Z,102213.97
2018-01-28T12:12:20.681Z,102214.09
2018-01-28T12:14:48.119Z,102214.94
2018-01-28T12:17:15.929Z,102219.37
2018-01-28T12:19:43.397Z,102207.42
2018-01-28T12:22:10.864Z,102201.59
2018-01-28T12:24:38.300Z,102196.37
2018-01-28T12:27:05.747Z,102202.59
2018-01-28T12:29:33.783Z,102193.75
2018-01-28T12:32:01.224Z,102189.83
2018-01-28T12:34:28.733Z,102186.80
2018-01-28T12:36:56.173Z,102190.45
2018-01-28T12:39:23.606Z,102187.41
2018-01-28T12:41:51.089Z,102182.14
2018-01-28T12:44:18.526Z,102180.76
2018-01-28T12:46:45.988Z,102183.02
2018-01-28T12:49:13.429Z,102186.13
2018-01-28T12:51:40.864Z,102187.84
2018-01-28T12:54:08.332Z,102189.66
2018-01-28T12:56:35.771Z,102188.34
2018-01-28T12:59:03.350Z,102186.58
2018-01-28T13:01:30.789Z,102183.56
2018-01-28T13:03:58.252Z,102193.30
2018-01-28T13:06:26.130Z,102181.86
2018-01-28T13:08:53.573Z,102176.52
2018-01-28T13:11:21.395Z,102180.95
2018-01-28T13:13:48.917Z,102175.22
2018-01-28T13:16:16.381Z,102172.12
2018-01-28T13:18:43.836Z,102167.30
2018-01-28T13:21:11.277Z,102163.22
2018-01-28T13:23:39.193Z,102163.25
2018-01-28T13:26:06.636Z,102161.50
2018-01-28T13:28:34.097Z,102164.58
2018-01-28T13:31:01.556Z,102168.16
2018-01-28T13:33:29.025Z,102157.05
2018-01-28T13:35:56.637Z,102159.71
2018-01-28T13:38:24.085Z,102159.71
2018-01-28T13:40:51.533Z,102149.93
2018-01-28T13:43:19.029Z,102164.60
2018-01-28T13:45:46.560Z,102165.05
2018-01-28T13:48:14.032Z,102160.59
2018-01-28T13:50:41.506Z,102161.04
2018-01-28T13:53:08.945Z,102162.81
2018-01-28T13:55:36.409Z,102160.16
2018-01-28T13:58:03.965Z,102161.89
2018-01-28T14:00:31.648Z,102164.44
2018-01-28T14:02:59.089Z,102162.22
2018-01-28T14:05:26.533Z,102167.53
2018-01-28T14:07:54.092Z,102175.95
2018-01-28T14:10:21.541Z,102174.57
2018-01-28T14:12:49.239Z,102180.77
2018-01-28T14:15:16.687Z,102178.94
2018-01-28T14:17:44.127Z,102180.75
2018-01-28T14:20:11.586Z,102181.58
2018-01-28T14:22:39.076Z,102180.70
2018-01-28T14:25:06.731Z,102180.27
2018-01-28T14:27:34.177Z,102178.92
2018-01-28T14:30:01.614Z,102179.37
2018-01-28T14:32:29.068Z,102173.16
2018-01-28T14:34:56.506Z,102178.04
2018-01-28T14:37:23.963Z,102176.19
2018-01-28T14:39:51.413Z,102180.17
2018-01-28T14:42:19.195Z,102188.12
2018-01-28T14:44:46.660Z,102177.89
2018-01-28T14:47:14.113Z,102177.97
2018-01-28T14:49:42.229Z,102177.14
2018-01-28T14:52:09.681Z,102187.32
2018-01-28T14:54:37.123Z,102177.95
2018-01-28T14:57:04.586Z,102172.19
2018-01-28T14:59:32.025Z,102178.39
2018-01-28T15:01:59.736Z,102181.92
2018-01-28T15:04:27.172Z,102181.00
2018-01-28T15:06:54.622Z,102189.84
2018-01-28T15:09:22.091Z,102179.22
2018-01-28T15:11:49.539Z,102193.78
2018-01-28T15:14:31.885Z,102195.56
2018-01-28T15:16:59.325Z,102196.91
2018-01-28T15:19:26.769Z,102192.14
2018-01-28T15:21:54.237Z,102191.30
2018-01-28T15:24:21.748Z,102192.92
2018-01-28T15:26:49.477Z,102197.90
2018-01-28T15:29:16.915Z,102199.56
2018-01-28T15:31:44.353Z,102203.64
2018-01-28T15:34:11.812Z,102206.61
2018-01-28T15:36:39.246Z,102205.78
2018-01-28T15:39:06.805Z,102195.29
2018-01-28T15:41:34.247Z,102189.36
2018-01-28T15:44:01.689Z,102197.33
2018-01-28T15:46:29.145Z,102193.44
2018-01-28T15:48:56.583Z,102186.22
2018-01-28T15:51:24.296Z,102182.81
2018-01-28T15:53:51.733Z,102194.62
2018-01-28T15:56:19.193Z,102192.47
2018-01-28T15:58:46.657Z,102200.00
2018-01-28T16:01:14.092Z,102199.57
2018-01-28T16:03:41.647Z,102194.59
2018-01-28T16:06:09.105Z,102195.50
2018-01-28T16:08:36.538Z,102200.97
2018-01-28T16:11:04.009Z,102197.33
2018-01-28T16:13:31.456Z,102197.78
2018-01-28T16:15:59.280Z,102192.86
2018-01-28T16:18:26.737Z,102197.25
2018-01-28T16:20:54.183Z,102182.73
2018-01-28T16:23:21.642Z,102180.56
2018-01-28T16:25:49.084Z,102180.00
2018-01-28T16:28:18.792Z,102185.93
2018-01-28T16:30:46.246Z,102183.57
2018-01-28T16:33:13.721Z,102185.84
2018-01-28T16:35:41.192Z,102189.80
2018-01-28T16:38:08.632Z,102190.17
2018-01-28T16:40:36.249Z,102198.14
2018-01-28T16:43:03.689Z,102191.48
2018-01-28T16:45:31.133Z,102191.95
2018-01-28T16:47:58.589Z,102193.69
2018-01-28T16:50:26.037Z,102193.35
2018-01-28T16:52:53.673Z,102196.80
2018-01-28T16:55:21.109Z,102202.45
2018-01-28T16:57:48.549Z,102200.33
2018-01-28T17:00:16.021Z,102204.51
2018-01-28T17:02:43.465Z,102210.11
2018-01-28T17:05:11.029Z,102217.23
2018-01-28T17:07:38.467Z,102221.16
2018-01-28T17:10:05.925Z,102223.56
2018-01-28T17:12:33.381Z,102234.27
2018-01-28T17:15:00.817Z,102219.05
2018-01-28T17:17:28.302Z,102223.19
2018-01-28T17:19:55.741Z,102224.94
2018-01-28T17:22:23.242Z,102221.22
2018-01-28T17:24:50.737Z,102217.78
2018-01-28T17:27:18.183Z,102220.80
2018-01-28T17:29:45.831Z,102214.59
2018-01-28T17:32:13.264Z,102220.01
2018-01-28T17:34:40.701Z,102225.31
2018-01-28T17:37:08.173Z,102225.20
2018-01-28T17:39:35.661Z,102221.42
2018-01-28T17:42:03.136Z,102223.48
2018-01-28T17:44:30.954Z,102217.67
2018-01-28T17:46:58.388Z,102213.80
2018-01-28T17:49:25.841Z,102212.39
2018-01-28T17:51:53.298Z,102207.18
2018-01-28T17:54:21.017Z,102206.27
2018-01-28T17:56:48.478Z,102211.16
2018-01-28T17:59:15.923Z,102203.11
2018-01-28T18:01:43.385Z,102202.22
2018-01-28T18:04:10.847Z,102208.42
2018-01-28T18:06:38.518Z,102208.86
2018-01-28T18:09:05.977Z,102208.34
2018-01-28T18:11:33.462Z,102207.45
2018-01-28T18:14:00.961Z,102205.29
2018-01-28T18:16:28.437Z,102205.67
2018-01-28T18:18:55.940Z,102199.00
2018-01-28T18:21:23.392Z,102203.03
2018-01-28T18:23:50.837Z,102194.67
2018-01-28T18:26:18.329Z,102197.69
2018-01-28T18:28:45.766Z,102196.48
2018-01-28T18:31:13.226Z,102197.06
2018-01-28T18:33:40.681Z,102194.71
2018-01-28T18:36:08.128Z,102195.59
2018-01-28T18:38:35.609Z,102185.86
2018-01-28T18:41:03.057Z,102179.73
2018-01-28T18:43:30.660Z,102177.88
2018-01-28T18:45:58.107Z,102187.69
2018-01-28T18:48:26.109Z,102188.94
2018-01-28T18:50:53.589Z,102175.68
2018-01-28T18:53:21.041Z,102172.50
2018-01-28T18:55:48.526Z,102173.00
2018-01-28T18:58:16.000Z,102169.84
2018-01-28T19:00:43.492Z,102167.33
2018-01-28T19:03:10.949Z,102173.47
2018-01-28T19:05:38.389Z,102173.09
2018-01-28T19:08:05.866Z,102183.61
2018-01-28T19:10:33.305Z,102176.13
2018-01-28T19:13:01.597Z,102178.83
2018-01-28T19:15:29.089Z,102176.62
2018-01-28T19:17:56.526Z,102177.07
2018-01-28T19:20:24.351Z,102168.14
2018-01-28T19:22:51.785Z,102169.53
2018-01-28T19:25:19.653Z,102180.98
2018-01-28T19:27:47.194Z,102173.61
2018-01-28T19:30:14.647Z,102170.80
2018-01-28T19:32:42.237Z,102174.34
2018-01-28T19:35:09.677Z,102169.99
2018-01-28T19:37:37.300Z,102170.38
2018-01-28T19:40:04.777Z,102170.82
2018-01-28T19:42:32.221Z,102165.56
2018-01-28T19:44:59.842Z,102167.34
2018-01-28T19:47:27.301Z,102161.16
2018-01-28T19:49:54.753Z,102159.89
2018-01-28T19:52:22.365Z,102155.02
2018-01-28T19:54:49.808Z,102168.21
2018-01-28T19:57:17.273Z,102166.83
2018-01-28T19:59:44.725Z,102171.31
2018-01-28T20:02:13.044Z,102173.92
2018-01-28T20:04:40.491Z,102179.75
2018-01-28T20:07:07.937Z,102175.75
2018-01-28T20:09:35.569Z,102175.77
2018-01-28T20:12:03.850Z,102172.23
2018-01-28T20:14:31.900Z,102172.29
2018-01-28T20:16:59.401Z,102173.69
2018-01-28T20:19:26.854Z,102179.48
2018-01-28T20:21:55.208Z,102182.53
2018-01-28T20:24:22.654Z,102183.04
2018-01-28T20:26:51.295Z,102178.65
2018-01-28T20:29:18.789Z,102174.48
2018-01-28T20:31:46.229Z,102174.50
2018-01-28T20:34:13.881Z,102177.97
2018-01-28T20:36:41.319Z,102179.42
2018-01-28T20:39:08.770Z,102182.91
2018-01-28T20:41:36.236Z,102183.80
2018-01-28T20:44:03.677Z,102184.23
2018-01-28T20:46:31.458Z,102174.88
2018-01-28T20:48:58.951Z,102181.64
2018-01-28T20:51:26.389Z,102183.87
2018-01-28T20:53:53.873Z,102185.25
2018-01-28T20:56:21.322Z,102185.69
2018-01-28T20:58:48.947Z,102176.27
2018-01-28T21:01:16.381Z,102183.73
2018-01-28T21:03:44.119Z,102180.76
2018-01-28T21:06:12.289Z,102193.88
2018-01-28T21:08:39.725Z,102189.02
2018-01-28T21:11:07.203Z,102185.57
2018-01-28T21:13:34.668Z,102191.30
2018-01-28T21:16:02.115Z,102194.80
2018-01-28T21:18:30.438Z,102194.33
2018-01-28T21:20:57.885Z,102184.09
2018-01-28T21:23:25.658Z,102191.22
2018-01-28T21:25:53.096Z,102197.52
2018-01-28T21:28:20.580Z,102203.56
2018-01-28T21:30:48.042Z,102208.88
2018-01-28T21:33:15.481Z,102211.06
2018-01-28T21:35:42.977Z,102204.58
2018-01-28T21:38:10.429Z,102201.04
2018-01-28T21:40:37.873Z,102191.77
2018-01-28T21:43:05.365Z,102192.19
2018-01-28T21:45:33.232Z,102202.83
2018-01-28T21:48:00.809Z,102197.08
2018-01-28T21:50:28.257Z,102195.36
2018-01-28T21:52:55.704Z,102193.97
2018-01-28T21:55:23.177Z,102191.77
2018-01-28T21:57:50.625Z,102186.00
2018-01-28T22:00:18.321Z,102180.69
2018-01-28T22:02:45.765Z,102179.73
2018-01-28T22:05:13.216Z,102168.31
2018-01-28T22:07:40.756Z,102165.72
2018-01-28T22:10:08.193Z,102170.08
2018-01-28T22:12:35.954Z,102161.72
2018-01-28T22:15:03.398Z,102169.63
2018-01-28T22:17:30.861Z,102159.95
2018-01-28T22:19:58.324Z,102158.23
2018-01-28T22:22:25.781Z,102159.50
2018-01-28T22:24:53.507Z,102155.97
2018-01-28T22:27:20.945Z,102156.86
2018-01-28T22:29:48.408Z,102154.64
2018-01-28T22:32:15.872Z,102153.31
2018-01-28T22:34:43.311Z,102144.45
2018-01-28T22:37:10.803Z,102148.83
2018-01-28T22:39:38.241Z,102137.31
2018-01-28T22:42:05.681Z,102139.54
2018-01-28T22:44:33.154Z,102142.19
2018-01-28T22:47:00.593Z,102140.42
2018-01-28T22:49:28.057Z,102133.33
2018-01-28T22:51:55.501Z,102134.70
2018-01-28T22:54:22.953Z,102136.42
2018-01-28T22:56:50.413Z,102132.00
2018-01-28T22:59:17.853Z,102131.61
2018-01-28T23:01:45.313Z,102135.09
2018-01-28T23:04:12.759Z,102136.87
2018-01-28T23:06:40.205Z,102130.68
2018-01-28T23:09:07.886Z,102133.83
2018-01-28T23:11:35.342Z,102134.72
2018-01-28T23:14:03.460Z,102137.31
2018-01-28T23:16:30.897Z,102133.77
2018-01-28T23:18:58.334Z,102132.44
2018-01-28T23:21:25.806Z,102140.41
2018-01-28T23:23:53.249Z,102141.30
2018-01-28T23:26:20.860Z,102137.75
2018-01-28T23:28:48.297Z,102137.80
2018-01-28T23:31:15.737Z,102133.83
2018-01-28T23:33:43.192Z,102133.34
2018-01-28T23:36:10.631Z,102131.50
2018-01-28T23:38:38.364Z,102127.97
2018-01-28T23:41:05.824Z,102126.70
2018-01-28T23:43:33.264Z,102120.95
2018-01-28T23:46:00.749Z,102116.56
2018-01-28T23:48:28.189Z,102117.90
2018-01-28T23:50:56.369Z,102122.70
2018-01-28T23:53:23.814Z,102124.05
2018-01-28T23:55:51.249Z,102121.37
2018-01-28T23:58:18.712Z,102118.72
